sensor_id;sensor_type;location;lat;lon;timestamp;pressure;altitude;pressure_sealevel;temperature;humidity
71791;BME280;59638;52.126;5.434;2022-09-13T00:01:09;101161.38;;;16.18;96.65
71791;BME280;59638;52.126;5.434;2022-09-13T00:03:36;101147.53;;;16.14;96.79
71791;BME280;59638;52.126;5.434;2022-09-13T00:06:12;101151.03;;;16.15;96.96
71791;BME280;59638;52.126;5.434;2022-09-13T00:08:39;101151.38;;;16.12;97.11
71791;BME280;59638;52.126;5.434;2022-09-13T00:11:06;101148.03;;;16.10;96.79
71791;BME280;59638;52.126;5.434;2022-09-13T00:13:32;101145.38;;;16.10;96.88
71791;BME280;59638;52.126;5.434;2022-09-13T00:15:59;101149.69;;;16.11;96.78
71791;BME280;59638;52.126;5.434;2022-09-13T00:18:28;101144.03;;;16.14;96.98
71791;BME280;59638;52.126;5.434;2022-09-13T00:21:07;101149.38;;;16.14;96.87
71791;BME280;59638;52.126;5.434;2022-09-13T00:23:34;101151.03;;;16.15;97.07
71791;BME280;59638;52.126;5.434;2022-09-13T00:26:10;101149.03;;;16.17;96.77
71791;BME280;59638;52.126;5.434;2022-09-13T00:28:37;101144.03;;;16.14;96.83
71791;BME280;59638;52.126;5.434;2022-09-13T00:31:06;101139.03;;;16.11;96.85
71791;BME280;59638;52.126;5.434;2022-09-13T00:33:32;101133.41;;;16.14;96.80
71791;BME280;59638;52.126;5.434;2022-09-13T00:36:07;101152.38;;;16.19;96.83
71791;BME280;59638;52.126;5.434;2022-09-13T00:38:35;101150.03;;;16.24;96.49
71791;BME280;59638;52.126;5.434;2022-09-13T00:41:04;101150.03;;;16.24;96.82
71791;BME280;59638;52.126;5.434;2022-09-13T00:43:44;101145.03;;;16.21;96.78
71791;BME280;59638;52.126;5.434;2022-09-13T00:46:16;101140.38;;;16.15;96.77
71791;BME280;59638;52.126;5.434;2022-09-13T00:48:44;101140.38;;;16.15;97.19
71791;BME280;59638;52.126;5.434;2022-09-13T00:51:12;101145.72;;;16.15;97.16
71791;BME280;59638;52.126;5.434;2022-09-13T00:53:43;101145.72;;;16.15;97.30
71791;BME280;59638;52.126;5.434;2022-09-13T00:56:13;101136.53;;;16.17;97.38
71791;BME280;59638;52.126;5.434;2022-09-13T00:58:45;101131.38;;;16.16;97.31
71791;BME280;59638;52.126;5.434;2022-09-13T01:01:15;101134.72;;;16.18;97.46
71791;BME280;59638;52.126;5.434;2022-09-13T01:03:43;101132.72;;;16.20;97.51
71791;BME280;59638;52.126;5.434;2022-09-13T01:06:23;101125.75;;;16.19;97.56
71791;BME280;59638;52.126;5.434;2022-09-13T01:08:54;101133.56;;;16.20;97.61
71791;BME280;59638;52.126;5.434;2022-09-13T01:11:51;101143.69;;;16.17;96.93
71791;BME280;59638;52.126;5.434;2022-09-13T01:14:21;101129.56;;;16.16;97.34
71791;BME280;59638;52.126;5.434;2022-09-13T01:16:49;101137.22;;;16.19;97.38
71791;BME280;59638;52.126;5.434;2022-09-13T01:19:16;101135.56;;;16.18;97.36
71791;BME280;59638;52.126;5.434;2022-09-13T01:21:51;101139.38;;;16.16;97.62
71791;BME280;59638;52.126;5.434;2022-09-13T01:27:49;101141.03;;;16.09;97.79
71791;BME280;59638;52.126;5.434;2022-09-13T01:30:24;101140.03;;;16.10;97.93
71791;BME280;59638;52.126;5.434;2022-09-13T01:33:00;101153.03;;;16.13;98.33
71791;BME280;59638;52.126;5.434;2022-09-13T01:44:17;101151.38;;;16.12;98.18
71791;BME280;59638;52.126;5.434;2022-09-13T01:49:31;101145.38;;;16.18;98.30
71791;BME280;59638;52.126;5.434;2022-09-13T01:52:01;101136.03;;;16.22;98.09
71791;BME280;59638;52.126;5.434;2022-09-13T01:57:16;101141.72;;;16.27;97.58
71791;BME280;59638;52.126;5.434;2022-09-13T01:59:51;101129.72;;;16.31;97.41
71791;BME280;59638;52.126;5.434;2022-09-13T02:02:29;101136.03;;;16.30;97.23
71791;BME280;59638;52.126;5.434;2022-09-13T02:05:03;101138.69;;;16.30;97.62
71791;BME280;59638;52.126;5.434;2022-09-13T02:07:35;101144.03;;;16.30;97.41
71791;BME280;59638;52.126;5.434;2022-09-13T02:10:17;101128.72;;;16.24;97.58
71791;BME280;59638;52.126;5.434;2022-09-13T02:12:47;101129.88;;;16.21;97.72
71791;BME280;59638;52.126;5.434;2022-09-13T02:15:20;101127.41;;;16.20;97.47
71791;BME280;59638;52.126;5.434;2022-09-13T02:17:54;101124.41;;;16.15;97.63
71791;BME280;59638;52.126;5.434;2022-09-13T02:20:27;101126.22;;;16.14;97.83
71791;BME280;59638;52.126;5.434;2022-09-13T02:22:59;101125.22;;;16.15;97.86
71791;BME280;59638;52.126;5.434;2022-09-13T02:25:29;101126.06;;;16.16;97.65
71791;BME280;59638;52.126;5.434;2022-09-13T02:28:00;101129.72;;;16.15;97.74
71791;BME280;59638;52.126;5.434;2022-09-13T02:30:30;101126.41;;;16.13;98.01
71791;BME280;59638;52.126;5.434;2022-09-13T02:33:04;101124.75;;;16.12;97.99
71791;BME280;59638;52.126;5.434;2022-09-13T02:35:37;101129.56;;;16.08;98.00
71791;BME280;59638;52.126;5.434;2022-09-13T02:38:27;101137.72;;;16.07;98.26
71791;BME280;59638;52.126;5.434;2022-09-13T02:41:23;101136.38;;;16.02;98.16
71791;BME280;59638;52.126;5.434;2022-09-13T02:43:57;101137.06;;;16.04;98.48
71791;BME280;59638;52.126;5.434;2022-09-13T02:46:55;101138.22;;;16.02;98.45
71791;BME280;59638;52.126;5.434;2022-09-13T02:49:29;101141.88;;;16.01;98.26
71791;BME280;59638;52.126;5.434;2022-09-13T02:52:15;101139.88;;;16.03;98.36
71791;BME280;59638;52.126;5.434;2022-09-13T03:00:39;101135.38;;;15.95;98.51
71791;BME280;59638;52.126;5.434;2022-09-13T03:03:08;101138.69;;;15.97;98.87
71791;BME280;59638;52.126;5.434;2022-09-13T03:05:37;101130.41;;;16.00;98.77
71791;BME280;59638;52.126;5.434;2022-09-13T03:08:04;101133.38;;;15.97;98.65
71791;BME280;59638;52.126;5.434;2022-09-13T03:16:28;101137.38;;;15.93;98.80
71791;BME280;59638;52.126;5.434;2022-09-13T03:32:47;101125.72;;;15.86;99.05
71791;BME280;59638;52.126;5.434;2022-09-13T03:35:28;101130.38;;;15.84;99.25
71791;BME280;59638;52.126;5.434;2022-09-13T03:38:18;101131.38;;;15.83;99.35
71791;BME280;59638;52.126;5.434;2022-09-13T03:41:12;101125.22;;;15.83;99.46
71791;BME280;59638;52.126;5.434;2022-09-13T03:43:44;101123.72;;;15.80;99.30
71791;BME280;59638;52.126;5.434;2022-09-13T03:46:18;101127.41;;;15.79;99.29
71791;BME280;59638;52.126;5.434;2022-09-13T03:48:45;101122.06;;;15.79;99.16
71791;BME280;59638;52.126;5.434;2022-09-13T03:51:13;101125.38;;;15.81;99.40
71791;BME280;59638;52.126;5.434;2022-09-13T03:53:47;101124.06;;;15.85;99.08
71791;BME280;59638;52.126;5.434;2022-09-13T03:56:17;101118.75;;;15.85;99.18
71791;BME280;59638;52.126;5.434;2022-09-13T03:58:46;101112.41;;;15.86;99.10
71791;BME280;59638;52.126;5.434;2022-09-13T04:01:15;101111.72;;;15.84;99.28
71791;BME280;59638;52.126;5.434;2022-09-13T04:03:43;101115.41;;;15.83;99.01
71791;BME280;59638;52.126;5.434;2022-09-13T04:06:09;101111.72;;;15.84;99.28
71791;BME280;59638;52.126;5.434;2022-09-13T04:08:35;101120.25;;;15.88;99.21
71791;BME280;59638;52.126;5.434;2022-09-13T04:11:02;101120.75;;;15.91;99.22
71791;BME280;59638;52.126;5.434;2022-09-13T04:13:28;101118.22;;;15.90;99.17
71791;BME280;59638;52.126;5.434;2022-09-13T04:15:59;101118.41;;;15.88;99.29
71791;BME280;59638;52.126;5.434;2022-09-13T04:18:28;101129.72;;;15.90;99.38
71791;BME280;59638;52.126;5.434;2022-09-13T04:20:56;101123.72;;;15.88;99.42
71791;BME280;59638;52.126;5.434;2022-09-13T04:23:24;101121.06;;;15.88;99.59
71791;BME280;59638;52.126;5.434;2022-09-13T04:25:51;101129.06;;;15.88;99.48
71791;BME280;59638;52.126;5.434;2022-09-13T04:28:20;101133.91;;;15.85;99.45
71791;BME280;59638;52.126;5.434;2022-09-13T04:30:48;101128.06;;;15.81;99.52
71791;BME280;59638;52.126;5.434;2022-09-13T04:33:15;101120.72;;;15.75;99.64
71791;BME280;59638;52.126;5.434;2022-09-13T04:35:42;101130.72;;;15.73;99.54
71791;BME280;59638;52.126;5.434;2022-09-13T04:38:08;101137.69;;;15.74;99.72
71791;BME280;59638;52.126;5.434;2022-09-13T04:40:35;101138.19;;;15.77;99.75
71791;BME280;59638;52.126;5.434;2022-09-13T04:43:02;101141.34;;;15.81;99.87
71791;BME280;59638;52.126;5.434;2022-09-13T04:45:29;101150.69;;;15.85;99.73
71791;BME280;59638;52.126;5.434;2022-09-13T04:47:55;101154.00;;;15.87;99.83
71791;BME280;59638;52.126;5.434;2022-09-13T04:50:23;101153.66;;;15.90;99.83
71791;BME280;59638;52.126;5.434;2022-09-13T04:52:53;101166.84;;;15.92;99.57
71791;BME280;59638;52.126;5.434;2022-09-13T04:55:20;101165.16;;;15.91;99.89
71791;BME280;59638;52.126;5.434;2022-09-13T04:57:46;101169.66;;;15.90;99.47
71791;BME280;59638;52.126;5.434;2022-09-13T05:00:13;101168.66;;;15.91;99.73
71791;BME280;59638;52.126;5.434;2022-09-13T05:02:39;101169.34;;;15.93;99.56
71791;BME280;59638;52.126;5.434;2022-09-13T05:05:06;101171.00;;;15.94;99.44
71791;BME280;59638;52.126;5.434;2022-09-13T05:07:32;101157.50;;;15.96;99.33
71791;BME280;59638;52.126;5.434;2022-09-13T05:09:59;101155.69;;;15.96;99.25
71791;BME280;59638;52.126;5.434;2022-09-13T05:12:25;101164.19;;;16.00;99.23
71791;BME280;59638;52.126;5.434;2022-09-13T05:14:51;101161.03;;;16.04;99.38
71791;BME280;59638;52.126;5.434;2022-09-13T05:17:18;101165.00;;;16.09;99.58
71791;BME280;59638;52.126;5.434;2022-09-13T05:19:45;101167.34;;;16.12;99.58
71791;BME280;59638;52.126;5.434;2022-09-13T05:22:11;101165.34;;;16.14;99.37
71791;BME280;59638;52.126;5.434;2022-09-13T05:24:38;101162.50;;;16.15;99.31
71791;BME280;59638;52.126;5.434;2022-09-13T05:27:04;101165.00;;;16.17;99.42
71791;BME280;59638;52.126;5.434;2022-09-13T05:29:30;101156.34;;;16.15;99.44
71791;BME280;59638;52.126;5.434;2022-09-13T05:31:57;101170.50;;;16.15;99.55
71791;BME280;59638;52.126;5.434;2022-09-13T05:34:23;101176.66;;;16.16;99.50
71791;BME280;59638;52.126;5.434;2022-09-13T05:36:50;101180.97;;;16.17;99.41
71791;BME280;59638;52.126;5.434;2022-09-13T05:39:19;101179.00;;;16.19;99.22
71791;BME280;59638;52.126;5.434;2022-09-13T05:42:07;101180.31;;;16.23;99.27
71791;BME280;59638;52.126;5.434;2022-09-13T05:44:33;101178.34;;;16.25;99.08
71791;BME280;59638;52.126;5.434;2022-09-13T05:46:59;101192.31;;;16.27;99.56
71791;BME280;59638;52.126;5.434;2022-09-13T05:49:26;101190.00;;;16.32;99.16
71791;BME280;59638;52.126;5.434;2022-09-13T05:51:52;101186.81;;;16.37;99.24
71791;BME280;59638;52.126;5.434;2022-09-13T05:54:18;101189.16;;;16.40;99.21
71791;BME280;59638;52.126;5.434;2022-09-13T05:56:45;101189.00;;;16.41;98.91
71791;BME280;59638;52.126;5.434;2022-09-13T05:59:12;101192.31;;;16.43;98.85
71791;BME280;59638;52.126;5.434;2022-09-13T06:01:39;101190.97;;;16.47;98.90
71791;BME280;59638;52.126;5.434;2022-09-13T06:04:06;101198.31;;;16.53;98.91
71791;BME280;59638;52.126;5.434;2022-09-13T06:06:33;101192.31;;;16.59;98.85
71791;BME280;59638;52.126;5.434;2022-09-13T06:09:00;101194.13;;;16.67;98.83
71791;BME280;59638;52.126;5.434;2022-09-13T06:11:27;101187.97;;;16.75;98.88
71791;BME280;59638;52.126;5.434;2022-09-13T06:13:53;101192.81;;;16.79;98.62
71791;BME280;59638;52.126;5.434;2022-09-13T06:16:20;101193.97;;;16.85;98.43
71791;BME280;59638;52.126;5.434;2022-09-13T06:18:47;101196.09;;;16.98;98.59
71791;BME280;59638;52.126;5.434;2022-09-13T06:21:16;101195.56;;;17.10;98.28
71791;BME280;59638;52.126;5.434;2022-09-13T06:23:48;101204.19;;;17.21;98.30
71791;BME280;59638;52.126;5.434;2022-09-13T06:26:18;101189.81;;;17.30;98.06
71791;BME280;59638;52.126;5.434;2022-09-13T06:28:49;101194.94;;;17.39;98.09
71791;BME280;59638;52.126;5.434;2022-09-13T06:31:18;101196.75;;;17.47;97.72
71791;BME280;59638;52.126;5.434;2022-09-13T06:33:45;101191.38;;;17.55;97.94
71791;BME280;59638;52.126;5.434;2022-09-13T06:36:17;101186.66;;;17.65;97.60
71791;BME280;59638;52.126;5.434;2022-09-13T06:38:44;101191.47;;;17.70;97.14
71791;BME280;59638;52.126;5.434;2022-09-13T06:41:13;101191.97;;;17.74;96.43
71791;BME280;59638;52.126;5.434;2022-09-13T06:43:40;101195.25;;;17.84;96.32
71791;BME280;59638;52.126;5.434;2022-09-13T06:46:12;101192.88;;;17.89;96.03
71791;BME280;59638;52.126;5.434;2022-09-13T06:48:42;101194.72;;;17.88;96.02
71791;BME280;59638;52.126;5.434;2022-09-13T06:51:14;101197.09;;;17.83;95.64
71791;BME280;59638;52.126;5.434;2022-09-13T06:53:42;101192.59;;;17.84;95.86
71791;BME280;59638;52.126;5.434;2022-09-13T06:56:13;101199.09;;;17.81;95.30
71791;BME280;59638;52.126;5.434;2022-09-13T06:58:42;101185.94;;;17.80;95.39
71791;BME280;59638;52.126;5.434;2022-09-13T07:03:49;101190.69;;;17.92;95.16
71791;BME280;59638;52.126;5.434;2022-09-13T07:06:18;101188.63;;;18.03;95.26
71791;BME280;59638;52.126;5.434;2022-09-13T07:08:49;101188.38;;;18.12;95.05
71791;BME280;59638;52.126;5.434;2022-09-13T07:11:17;101193.66;;;18.20;94.73
71791;BME280;59638;52.126;5.434;2022-09-13T07:13:51;101196.31;;;18.20;94.72
71791;BME280;59638;52.126;5.434;2022-09-13T07:16:20;101195.91;;;18.32;94.62
71791;BME280;59638;52.126;5.434;2022-09-13T07:18:51;101192.97;;;18.41;94.22
71791;BME280;59638;52.126;5.434;2022-09-13T07:21:18;101187.00;;;18.54;93.92
71791;BME280;59638;52.126;5.434;2022-09-13T07:23:45;101184.44;;;18.61;93.56
71791;BME280;59638;52.126;5.434;2022-09-13T07:26:11;101182.19;;;18.72;93.31
71791;BME280;59638;52.126;5.434;2022-09-13T07:28:42;101182.03;;;18.89;93.12
71791;BME280;59638;52.126;5.434;2022-09-13T07:31:14;101195.03;;;19.07;93.00
71791;BME280;59638;52.126;5.434;2022-09-13T07:33:42;101188.28;;;19.25;92.90
71791;BME280;59638;52.126;5.434;2022-09-13T07:36:10;101183.31;;;19.37;92.08
71791;BME280;59638;52.126;5.434;2022-09-13T07:38:39;101192.78;;;19.54;92.06
71791;BME280;59638;52.126;5.434;2022-09-13T07:41:09;101190.47;;;19.66;91.27
71791;BME280;59638;52.126;5.434;2022-09-13T07:43:36;101195.59;;;19.82;91.64
71791;BME280;59638;52.126;5.434;2022-09-13T07:46:08;101197.66;;;20.02;90.51
71791;BME280;59638;52.126;5.434;2022-09-13T07:48:37;101202.50;;;20.13;90.62
71791;BME280;59638;52.126;5.434;2022-09-13T07:51:15;101208.38;;;20.23;90.08
71791;BME280;59638;52.126;5.434;2022-09-13T07:53:43;101209.13;;;20.38;88.98
71791;BME280;59638;52.126;5.434;2022-09-13T07:56:12;101211.94;;;20.52;88.95
71791;BME280;59638;52.126;5.434;2022-09-13T07:58:42;101203.22;;;20.71;88.92
71791;BME280;59638;52.126;5.434;2022-09-13T08:01:14;101212.78;;;22.11;87.10
71791;BME280;59638;52.126;5.434;2022-09-13T08:03:42;101205.47;;;23.24;82.95
71791;BME280;59638;52.126;5.434;2022-09-13T08:06:09;101216.38;;;23.42;80.66
71791;BME280;59638;52.126;5.434;2022-09-13T08:08:36;101216.28;;;23.11;79.31
71791;BME280;59638;52.126;5.434;2022-09-13T08:11:05;101220.88;;;22.37;80.80
71791;BME280;59638;52.126;5.434;2022-09-13T08:13:32;101219.22;;;22.63;80.10
71791;BME280;59638;52.126;5.434;2022-09-13T08:16:04;101206.06;;;23.39;79.78
71791;BME280;59638;52.126;5.434;2022-09-13T08:18:31;101221.56;;;23.95;77.21
71791;BME280;59638;52.126;5.434;2022-09-13T08:20:59;101210.50;;;24.85;74.57
71791;BME280;59638;52.126;5.434;2022-09-13T08:23:26;101214.97;;;24.73;74.37
71791;BME280;59638;52.126;5.434;2022-09-13T08:25:52;101221.19;;;24.17;73.31
71791;BME280;59638;52.126;5.434;2022-09-13T08:28:20;101219.31;;;23.34;75.57
71791;BME280;59638;52.126;5.434;2022-09-13T08:30:52;101223.19;;;22.53;78.12
71791;BME280;59638;52.126;5.434;2022-09-13T08:33:19;101223.16;;;22.34;80.58
71791;BME280;59638;52.126;5.434;2022-09-13T08:35:50;101226.47;;;22.36;79.44
71791;BME280;59638;52.126;5.434;2022-09-13T08:38:17;101230.13;;;22.08;81.02
71791;BME280;59638;52.126;5.434;2022-09-13T08:43:45;101222.72;;;22.10;81.81
71791;BME280;59638;52.126;5.434;2022-09-13T08:46:23;101226.97;;;21.91;81.33
71791;BME280;59638;52.126;5.434;2022-09-13T08:48:55;101222.63;;;21.84;82.26
71791;BME280;59638;52.126;5.434;2022-09-13T08:54:11;101220.69;;;22.72;80.41
71791;BME280;59638;52.126;5.434;2022-09-13T08:57:02;101219.22;;;23.67;79.31
71791;BME280;59638;52.126;5.434;2022-09-13T09:05:23;101228.97;;;22.90;78.31
71791;BME280;59638;52.126;5.434;2022-09-13T09:07:51;101236.63;;;22.53;77.54
71791;BME280;59638;52.126;5.434;2022-09-13T09:10:26;101241.34;;;22.38;78.69
71791;BME280;59638;52.126;5.434;2022-09-13T09:13:11;101240.75;;;22.36;80.00
71791;BME280;59638;52.126;5.434;2022-09-13T09:15:54;101241.78;;;22.29;79.13
71791;BME280;59638;52.126;5.434;2022-09-13T09:18:30;101248.78;;;22.10;77.24
71791;BME280;59638;52.126;5.434;2022-09-13T09:20:59;101252.03;;;22.05;77.94
71791;BME280;59638;52.126;5.434;2022-09-13T09:23:38;101246.56;;;22.46;79.80
71791;BME280;59638;52.126;5.434;2022-09-13T09:26:19;101247.38;;;22.47;79.22
71791;BME280;59638;52.126;5.434;2022-09-13T09:28:49;101243.84;;;22.20;79.28
71791;BME280;59638;52.126;5.434;2022-09-13T09:31:39;101241.47;;;22.04;79.81
71791;BME280;59638;52.126;5.434;2022-09-13T09:39:22;101239.31;;;22.34;77.34
71791;BME280;59638;52.126;5.434;2022-09-13T09:41:54;101244.56;;;21.94;80.54
71791;BME280;59638;52.126;5.434;2022-09-13T09:44:26;101242.03;;;21.73;80.73
71791;BME280;59638;52.126;5.434;2022-09-13T09:46:56;101246.13;;;21.68;80.29
71791;BME280;59638;52.126;5.434;2022-09-13T09:49:41;101242.44;;;21.76;81.77
71791;BME280;59638;52.126;5.434;2022-09-13T09:53:04;101236.38;;;22.15;78.61
71791;BME280;59638;52.126;5.434;2022-09-13T09:58:44;101220.94;;;25.00;69.74
71791;BME280;59638;52.126;5.434;2022-09-13T10:01:15;101217.81;;;25.76;67.04
71791;BME280;59638;52.126;5.434;2022-09-13T10:03:50;101210.72;;;25.75;68.18
71791;BME280;59638;52.126;5.434;2022-09-13T10:06:19;101215.59;;;25.18;68.00
71791;BME280;59638;52.126;5.434;2022-09-13T10:11:50;101207.97;;;25.63;68.29
71791;BME280;59638;52.126;5.434;2022-09-13T10:14:43;101210.69;;;26.35;68.70
71791;BME280;59638;52.126;5.434;2022-09-13T10:17:16;101212.38;;;26.95;65.77
71791;BME280;59638;52.126;5.434;2022-09-13T10:22:39;101215.06;;;26.06;62.73
71791;BME280;59638;52.126;5.434;2022-09-13T10:25:20;101213.69;;;25.37;67.20
71791;BME280;59638;52.126;5.434;2022-09-13T10:27:52;101221.72;;;24.82;68.04
71791;BME280;59638;52.126;5.434;2022-09-13T10:30:45;101211.81;;;25.19;71.36
71791;BME280;59638;52.126;5.434;2022-09-13T10:33:25;101211.38;;;25.89;68.23
71791;BME280;59638;52.126;5.434;2022-09-13T10:35:55;101214.34;;;25.69;64.21
71791;BME280;59638;52.126;5.434;2022-09-13T10:38:26;101212.84;;;24.56;66.96
71791;BME280;59638;52.126;5.434;2022-09-13T10:40:54;101219.72;;;24.21;69.15
71791;BME280;59638;52.126;5.434;2022-09-13T10:43:22;101227.88;;;24.14;66.38
71791;BME280;59638;52.126;5.434;2022-09-13T10:45:50;101222.78;;;24.56;66.45
71791;BME280;59638;52.126;5.434;2022-09-13T10:48:18;101221.50;;;25.45;63.81
71791;BME280;59638;52.126;5.434;2022-09-13T10:51:06;101215.25;;;25.93;66.76
71791;BME280;59638;52.126;5.434;2022-09-13T10:53:38;101207.78;;;26.60;63.70
71791;BME280;59638;52.126;5.434;2022-09-13T10:56:22;101203.06;;;26.67;61.54
71791;BME280;59638;52.126;5.434;2022-09-13T10:58:50;101204.00;;;26.49;62.45
71791;BME280;59638;52.126;5.434;2022-09-13T11:01:30;101202.44;;;27.64;62.62
71791;BME280;59638;52.126;5.434;2022-09-13T11:04:49;101196.19;;;28.37;64.29
71791;BME280;59638;52.126;5.434;2022-09-13T11:07:36;101202.06;;;28.01;60.18
71791;BME280;59638;52.126;5.434;2022-09-13T11:10:14;101195.53;;;26.69;61.56
71791;BME280;59638;52.126;5.434;2022-09-13T11:15:44;101184.59;;;27.40;62.03
71791;BME280;59638;52.126;5.434;2022-09-13T11:18:26;101192.28;;;28.00;57.93
71791;BME280;59638;52.126;5.434;2022-09-13T11:21:08;101188.53;;;29.77;52.82
71791;BME280;59638;52.126;5.434;2022-09-13T11:26:34;101187.84;;;31.72;52.68
71791;BME280;59638;52.126;5.434;2022-09-13T11:29:24;101175.72;;;33.15;50.24
71791;BME280;59638;52.126;5.434;2022-09-13T11:32:12;101179.53;;;33.14;47.99
71791;BME280;59638;52.126;5.434;2022-09-13T11:46:04;101174.81;;;31.99;46.40
71791;BME280;59638;52.126;5.434;2022-09-13T11:56:48;101163.75;;;32.86;45.67
71791;BME280;59638;52.126;5.434;2022-09-13T12:01:58;101171.47;;;28.56;54.71
71791;BME280;59638;52.126;5.434;2022-09-13T12:04:41;101171.66;;;30.08;47.71
71791;BME280;59638;52.126;5.434;2022-09-13T12:07:17;101155.06;;;30.78;45.56
71791;BME280;59638;52.126;5.434;2022-09-13T12:09:52;101168.13;;;28.87;50.94
71791;BME280;59638;52.126;5.434;2022-09-13T12:12:31;101169.50;;;27.44;55.59
71791;BME280;59638;52.126;5.434;2022-09-13T12:15:18;101172.75;;;27.57;56.54
71791;BME280;59638;52.126;5.434;2022-09-13T12:17:49;101173.06;;;27.73;52.02
71791;BME280;59638;52.126;5.434;2022-09-13T12:20:30;101166.44;;;26.76;56.39
71791;BME280;59638;52.126;5.434;2022-09-13T12:23:00;101176.94;;;27.08;54.54
71791;BME280;59638;52.126;5.434;2022-09-13T12:25:36;101169.66;;;29.66;49.56
71791;BME280;59638;52.126;5.434;2022-09-13T12:28:12;101167.59;;;30.42;48.55
71791;BME280;59638;52.126;5.434;2022-09-13T12:30:47;101173.47;;;29.65;49.09
71791;BME280;59638;52.126;5.434;2022-09-13T12:33:18;101171.88;;;29.25;47.30
71791;BME280;59638;52.126;5.434;2022-09-13T12:36:15;101179.91;;;27.63;55.87
71791;BME280;59638;52.126;5.434;2022-09-13T12:42:17;101170.00;;;27.41;55.29
71791;BME280;59638;52.126;5.434;2022-09-13T12:44:59;101177.88;;;26.55;57.00
71791;BME280;59638;52.126;5.434;2022-09-13T12:50:19;101178.66;;;25.60;58.83
71791;BME280;59638;52.126;5.434;2022-09-13T12:59:08;101160.53;;;24.94;60.45
71791;BME280;59638;52.126;5.434;2022-09-13T13:01:46;101155.66;;;24.66;60.03
71791;BME280;59638;52.126;5.434;2022-09-13T13:04:14;101147.81;;;24.39;60.60
71791;BME280;59638;52.126;5.434;2022-09-13T13:07:01;101156.41;;;23.98;61.31
71791;BME280;59638;52.126;5.434;2022-09-13T13:09:40;101169.63;;;23.75;62.78
71791;BME280;59638;52.126;5.434;2022-09-13T13:12:09;101172.00;;;23.51;61.06
71791;BME280;59638;52.126;5.434;2022-09-13T13:17:38;101166.34;;;23.21;64.74
71791;BME280;59638;52.126;5.434;2022-09-13T13:23:23;101162.56;;;23.29;62.54
71791;BME280;59638;52.126;5.434;2022-09-13T13:41:56;101152.78;;;22.57;65.40
71791;BME280;59638;52.126;5.434;2022-09-13T13:49:43;101151.38;;;22.47;65.59
71791;BME280;59638;52.126;5.434;2022-09-13T13:57:40;101168.13;;;22.43;66.08
71791;BME280;59638;52.126;5.434;2022-09-13T14:00:24;101166.47;;;22.48;64.40
71791;BME280;59638;52.126;5.434;2022-09-13T14:02:58;101166.47;;;22.48;64.38
71791;BME280;59638;52.126;5.434;2022-09-13T14:11:35;101164.00;;;22.47;66.19
71791;BME280;59638;52.126;5.434;2022-09-13T14:14:26;101166.47;;;22.22;66.87
71791;BME280;59638;52.126;5.434;2022-09-13T14:20:14;101159.19;;;22.03;65.30
71791;BME280;59638;52.126;5.434;2022-09-13T14:22:41;101155.66;;;21.95;64.66
71791;BME280;59638;52.126;5.434;2022-09-13T14:27:46;101155.66;;;21.95;63.52
71791;BME280;59638;52.126;5.434;2022-09-13T14:30:25;101160.00;;;21.90;64.32
71791;BME280;59638;52.126;5.434;2022-09-13T14:32:57;101154.38;;;21.78;65.55
71791;BME280;59638;52.126;5.434;2022-09-13T14:35:28;101161.75;;;21.50;65.72
71791;BME280;59638;52.126;5.434;2022-09-13T14:38:09;101170.72;;;21.22;67.96
71791;BME280;59638;52.126;5.434;2022-09-13T14:40:36;101164.03;;;21.11;64.92
71791;BME280;59638;52.126;5.434;2022-09-13T14:43:14;101156.81;;;21.12;67.19
71791;BME280;59638;52.126;5.434;2022-09-13T14:45:43;101167.00;;;21.23;65.58
71791;BME280;59638;52.126;5.434;2022-09-13T14:48:18;101166.84;;;21.31;66.10
71791;BME280;59638;52.126;5.434;2022-09-13T14:53:17;101164.28;;;21.16;65.19
71791;BME280;59638;52.126;5.434;2022-09-13T14:55:51;101171.47;;;21.09;66.25
71791;BME280;59638;52.126;5.434;2022-09-13T14:58:23;101176.41;;;21.06;66.89
71791;BME280;59638;52.126;5.434;2022-09-13T15:00:54;101170.09;;;20.85;67.87
71791;BME280;59638;52.126;5.434;2022-09-13T15:03:22;101166.84;;;20.62;67.40
71791;BME280;59638;52.126;5.434;2022-09-13T15:05:52;101169.81;;;20.46;66.61
71791;BME280;59638;52.126;5.434;2022-09-13T15:11:02;101163.84;;;20.22;66.70
71791;BME280;59638;52.126;5.434;2022-09-13T15:13:29;101167.03;;;20.11;68.70
71791;BME280;59638;52.126;5.434;2022-09-13T15:15:55;101165.38;;;20.10;69.92
71791;BME280;59638;52.126;5.434;2022-09-13T15:18:29;101166.50;;;20.22;69.83
71791;BME280;59638;52.126;5.434;2022-09-13T15:21:04;101160.19;;;20.30;70.17
71791;BME280;59638;52.126;5.434;2022-09-13T15:26:19;101163.41;;;20.47;69.11
71791;BME280;59638;52.126;5.434;2022-09-13T15:28:53;101156.16;;;20.41;69.86
71791;BME280;59638;52.126;5.434;2022-09-13T15:31:27;101154.81;;;20.30;69.05
71791;BME280;59638;52.126;5.434;2022-09-13T15:36:44;101161.41;;;20.27;69.61
71791;BME280;59638;52.126;5.434;2022-09-13T15:39:15;101157.91;;;20.33;70.17
71791;BME280;59638;52.126;5.434;2022-09-13T15:41:57;101156.94;;;20.34;69.73
71791;BME280;59638;52.126;5.434;2022-09-13T15:44:27;101162.28;;;20.34;70.16
71791;BME280;59638;52.126;5.434;2022-09-13T15:46:58;101144.81;;;20.17;69.18
71791;BME280;59638;52.126;5.434;2022-09-13T15:49:27;101152.47;;;19.99;70.96
71791;BME280;59638;52.126;5.434;2022-09-13T15:51:59;101154.41;;;19.83;71.17
71791;BME280;59638;52.126;5.434;2022-09-13T15:54:33;101143.16;;;19.73;71.77
71791;BME280;59638;52.126;5.434;2022-09-13T15:57:00;101142.91;;;19.68;71.84
71791;BME280;59638;52.126;5.434;2022-09-13T15:59:27;101137.09;;;19.65;72.00
71791;BME280;59638;52.126;5.434;2022-09-13T16:01:53;101140.59;;;19.65;72.58
71791;BME280;59638;52.126;5.434;2022-09-13T16:04:20;101135.88;;;19.67;72.65